Time;durP1;ratioP1;P1;durP2;ratioP2;P2;SDS_P1;SDS_P2;PMS_P1;PMS_P2;Temp;Humidity;BMP_temperature;BMP_pressure;BME280_temperature;BME280_humidity;BME280_pressure;Samples;Min_cycle;Max_cycle;Signal;HPM_P1;HPM_P2
2023/03/30 00:00:17;;;;;;;4.45;1.38;;;;;;;14.11;100.00;98448.94;4994747;28;20120;-75
2023/03/30 00:02:49;;;;;;;9.18;1.85;;;;;;;14.04;100.00;98448.19;4989357;28;20025;-76
2023/03/30 00:05:16;;;;;;;9.07;1.75;;;;;;;13.80;100.00;98420.13;4988824;28;20030;-74
2023/03/30 00:07:42;;;;;;;10.32;1.70;;;;;;;13.43;100.00;98420.28;4993256;28;20022;-77
2023/03/30 00:10:09;;;;;;;4.75;1.80;;;;;;;13.12;100.00;98386.81;5011764;28;20522;-77
2023/03/30 00:12:35;;;;;;;7.80;1.77;;;;;;;13.24;100.00;98422.19;4990048;28;20030;-76
2023/03/30 00:15:01;;;;;;;12.32;2.47;;;;;;;13.24;100.00;98415.94;5011228;28;20030;-76
2023/03/30 00:17:26;;;;;;;14.90;2.03;;;;;;;13.34;100.00;98433.38;5011258;28;20080;-77
2023/03/30 00:19:52;;;;;;;8.63;1.73;;;;;;;13.22;100.00;98416.16;5004694;28;20109;-76
2023/03/30 00:22:17;;;;;;;8.10;2.05;;;;;;;13.09;100.00;98395.44;5012863;28;20037;-76
2023/03/30 00:24:43;;;;;;;13.07;1.75;;;;;;;12.74;100.00;98327.41;5004806;28;20025;-76
2023/03/30 00:27:08;;;;;;;9.90;2.13;;;;;;;13.09;100.00;98398.16;4995437;28;20029;-77
2023/03/30 00:29:33;;;;;;;5.05;1.80;;;;;;;13.10;100.00;98412.59;5012412;28;20396;-76
2023/03/30 00:31:59;;;;;;;6.13;1.83;;;;;;;13.07;100.00;98407.59;4995267;28;20026;-77
2023/03/30 00:34:24;;;;;;;12.90;2.08;;;;;;;13.21;100.00;98400.94;5011445;28;20044;-76
2023/03/30 00:36:52;;;;;;;6.88;1.70;;;;;;;13.10;100.00;98380.81;4999088;28;20026;-76
2023/03/30 00:39:17;;;;;;;11.95;1.50;;;;;;;13.08;100.00;98391.06;5013711;28;20025;-76
2023/03/30 00:41:43;;;;;;;6.43;1.55;;;;;;;13.16;100.00;98376.34;5013323;28;20021;-77
2023/03/30 00:44:47;;;;;;;8.32;1.40;;;;;;;13.11;100.00;98352.59;5018066;28;20025;-77
2023/03/30 00:47:12;;;;;;;5.55;1.38;;;;;;;13.03;100.00;98355.63;4993701;28;20419;-76
2023/03/30 00:49:38;;;;;;;10.93;1.60;;;;;;;13.03;100.00;98365.66;5002735;28;20021;-76
2023/03/30 00:52:04;;;;;;;7.47;2.00;;;;;;;12.89;100.00;98362.28;5009144;28;20026;-77
2023/03/30 00:54:29;;;;;;;8.70;1.83;;;;;;;12.82;100.00;98356.13;5002175;28;20033;-77
2023/03/30 00:56:55;;;;;;;8.50;1.50;;;;;;;12.97;100.00;98339.41;5011550;28;20344;-77
2023/03/30 00:59:20;;;;;;;7.25;2.13;;;;;;;13.02;100.00;98340.41;4994558;28;20464;-76
2023/03/30 01:01:48;;;;;;;6.72;1.75;;;;;;;12.98;100.00;98335.66;4996157;28;20180;-77
2023/03/30 01:04:15;;;;;;;9.73;1.60;;;;;;;13.02;100.00;98347.69;5010618;28;20439;-75
2023/03/30 01:06:45;;;;;;;8.63;1.80;;;;;;;13.01;100.00;98340.63;5010027;28;20112;-77
2023/03/30 01:09:11;;;;;;;8.25;1.77;;;;;;;13.12;100.00;98342.53;5011671;28;20381;-75
2023/03/30 01:11:37;;;;;;;8.82;1.70;;;;;;;13.19;100.00;98320.72;4993556;28;20037;-76
2023/03/30 01:14:06;;;;;;;8.15;1.88;;;;;;;13.31;100.00;98298.00;4994680;28;20053;-77
2023/03/30 01:16:35;;;;;;;6.30;1.30;;;;;;;13.58;100.00;98327.44;4992709;28;20036;-76
2023/03/30 01:19:35;;;;;;;8.55;1.48;;;;;;;13.53;100.00;98308.31;5013032;28;20030;-76
2023/03/30 01:22:33;;;;;;;8.57;1.63;;;;;;;13.79;100.00;98326.88;4994860;28;20036;-76
2023/03/30 01:25:23;;;;;;;8.05;1.60;;;;;;;13.80;100.00;98327.69;4981456;28;20061;-76
2023/03/30 01:28:20;;;;;;;10.48;2.08;;;;;;;13.73;100.00;98329.72;5013429;28;20026;-76
2023/03/30 01:31:18;;;;;;;12.05;2.00;;;;;;;13.65;100.00;98332.75;4994513;28;20048;-76
2023/03/30 01:33:56;;;;;;;12.53;1.70;;;;;;;13.60;100.00;98328.06;5013972;28;20117;-77
2023/03/30 01:36:46;;;;;;;9.15;1.27;;;;;;;13.52;100.00;98325.69;4998383;28;20284;-76
2023/03/30 01:39:20;;;;;;;9.82;1.40;;;;;;;13.55;100.00;98336.09;5013327;28;20156;-75
2023/03/30 01:42:01;;;;;;;10.10;1.80;;;;;;;13.53;100.00;98340.91;5014688;28;20053;-75
2023/03/30 01:45:00;;;;;;;13.23;2.05;;;;;;;13.59;100.00;98353.56;4996920;28;20042;-76
2023/03/30 01:47:47;;;;;;;10.98;1.85;;;;;;;13.49;100.00;98337.84;5016739;28;20026;-76
2023/03/30 01:50:22;;;;;;;6.30;1.80;;;;;;;13.53;100.00;98324.59;5024812;28;20487;-77
2023/03/30 01:53:21;;;;;;;11.18;1.70;;;;;;;13.83;100.00;98332.66;5025443;28;20026;-75
2023/03/30 01:56:05;;;;;;;12.00;1.90;;;;;;;13.85;100.00;98324.28;5017150;28;20037;-77
2023/03/30 01:58:45;;;;;;;5.80;1.80;;;;;;;13.96;100.00;98316.13;5024199;28;20022;-72
2023/03/30 02:01:13;;;;;;;9.75;2.03;;;;;;;14.01;100.00;98334.44;5005070;28;20049;-76
2023/03/30 02:03:42;;;;;;;11.85;2.10;;;;;;;14.07;100.00;98348.97;5022850;28;20017;-74
2023/03/30 02:06:29;;;;;;;11.00;1.52;;;;;;;13.97;100.00;98349.59;5012917;28;20034;-76
2023/03/30 02:08:59;;;;;;;14.10;2.13;;;;;;;13.96;100.00;98350.63;5010575;28;20038;-75
2023/03/30 02:11:27;;;;;;;16.23;2.00;;;;;;;13.96;100.00;98348.78;4990775;28;20026;-75
2023/03/30 02:13:57;;;;;;;12.70;1.97;;;;;;;13.85;100.00;98351.47;5013886;28;20064;-77
2023/03/30 02:16:30;;;;;;;10.57;1.80;;;;;;;13.88;100.00;98354.53;4993236;28;20800;-76
2023/03/30 02:18:56;;;;;;;10.98;1.67;;;;;;;13.72;100.00;98314.47;5000070;28;20031;-75
2023/03/30 02:21:22;;;;;;;13.95;2.47;;;;;;;13.72;100.00;98314.47;5017018;28;20029;-76
2023/03/30 02:23:49;;;;;;;10.25;2.10;;;;;;;13.88;100.00;98335.50;4993411;28;20105;-76
2023/03/30 02:26:14;;;;;;;12.18;1.90;;;;;;;13.94;100.00;98341.91;5002786;28;20026;-76
2023/03/30 02:28:40;;;;;;;13.65;2.20;;;;;;;13.94;100.00;98344.63;5005795;28;20037;-76
2023/03/30 02:31:12;;;;;;;15.05;2.78;;;;;;;13.95;100.00;98354.44;4997864;28;20030;-77
2023/03/30 02:34:05;;;;;;;12.35;2.17;;;;;;;14.00;100.00;98362.72;4998451;28;20855;-77
2023/03/30 02:36:59;;;;;;;10.00;1.80;;;;;;;13.99;100.00;98363.75;4990226;28;20044;-75
2023/03/30 02:40:07;;;;;;;8.20;1.88;;;;;;;13.98;100.00;98373.00;4996788;28;20030;-77
2023/03/30 02:42:44;;;;;;;9.52;1.73;;;;;;;13.86;100.00;98356.69;4996452;28;20031;-75
2023/03/30 02:45:18;;;;;;;12.48;2.03;;;;;;;13.90;100.00;98378.78;5013109;28;20036;-75
2023/03/30 02:48:18;;;;;;;9.02;1.77;;;;;;;13.88;100.00;98375.47;4996660;28;20118;-78
2023/03/30 02:50:53;;;;;;;17.05;2.35;;;;;;;13.79;100.00;98375.81;4972543;28;20036;-77
2023/03/30 02:53:34;;;;;;;13.75;2.28;;;;;;;13.73;100.00;98354.19;4978831;28;20381;-74
2023/03/30 02:56:18;;;;;;;11.70;1.92;;;;;;;13.77;100.00;98353.47;5002262;28;20053;-76
2023/03/30 02:59:02;;;;;;;8.98;1.98;;;;;;;13.59;100.00;98346.22;5003076;28;20026;-75
2023/03/30 03:01:41;;;;;;;18.08;1.98;;;;;;;13.42;100.00;98314.56;4996105;28;20053;-75
2023/03/30 03:04:10;;;;;;;10.95;2.13;;;;;;;13.45;100.00;98324.94;5005489;28;20033;-78
2023/03/30 03:06:36;;;;;;;10.68;1.75;;;;;;;13.52;100.00;98344.72;4997545;28;20053;-75
2023/03/30 03:09:03;;;;;;;27.08;2.25;;;;;;;13.36;100.00;98341.59;4997432;28;20025;-77
2023/03/30 03:11:28;;;;;;;20.20;2.35;;;;;;;13.16;100.00;98341.84;4996435;28;20030;-77
2023/03/30 03:13:54;;;;;;;18.10;2.72;;;;;;;12.97;100.00;98323.97;5016053;28;20105;-77
2023/03/30 03:16:20;;;;;;;13.35;1.80;;;;;;;12.93;100.00;98322.75;4996652;28;20032;-75
2023/03/30 03:18:45;;;;;;;12.15;1.90;;;;;;;12.93;100.00;98293.72;5015501;28;20021;-76
2023/03/30 03:21:12;;;;;;;14.75;1.98;;;;;;;13.01;100.00;98259.97;5015263;28;20041;-75
2023/03/30 03:23:39;;;;;;;15.20;2.15;;;;;;;12.72;100.00;98246.19;4994459;28;20112;-76
2023/03/30 03:26:06;;;;;;;15.25;2.25;;;;;;;12.85;100.00;98313.06;4999580;28;20052;-76
2023/03/30 03:28:32;;;;;;;17.50;3.20;;;;;;;12.47;100.00;98281.63;5015776;28;20072;-74
2023/03/30 03:30:58;;;;;;;12.18;2.63;;;;;;;12.69;100.00;98321.84;4998539;28;20021;-80
2023/03/30 03:33:25;;;;;;;11.43;2.40;;;;;;;12.69;100.00;98294.69;4995053;28;20022;-78
2023/03/30 03:35:52;;;;;;;14.18;2.25;;;;;;;12.95;100.00;98334.22;5011106;28;20403;-76
2023/03/30 03:38:21;;;;;;;12.93;2.28;;;;;;;12.68;100.00;98293.03;5017062;28;20026;-76
2023/03/30 03:40:50;;;;;;;12.35;2.17;;;;;;;12.86;100.00;98305.72;5001738;28;20014;-76
2023/03/30 03:43:16;;;;;;;15.07;2.35;;;;;;;12.85;100.00;98313.06;4995241;28;20030;-77
2023/03/30 03:45:41;;;;;;;18.25;2.45;;;;;;;12.79;100.00;98307.72;5004506;28;20109;-76
2023/03/30 03:48:07;;;;;;;9.45;2.30;;;;;;;12.67;100.00;98296.81;4997476;28;20093;-76
2023/03/30 03:50:32;;;;;;;13.23;3.28;;;;;;;12.68;100.00;98299.31;4998853;28;20099;-78
2023/03/30 03:52:57;;;;;;;10.15;2.03;;;;;;;12.66;100.00;98300.59;5009923;28;20535;-76
2023/03/30 03:55:23;;;;;;;14.43;2.35;;;;;;;12.44;100.00;98301.06;5011032;28;20395;-76
2023/03/30 03:57:49;;;;;;;16.98;2.95;;;;;;;12.24;100.00;98305.91;4999377;28;20037;-77
2023/03/30 04:00:17;;;;;;;19.65;3.33;;;;;;;12.27;100.00;98319.00;4995619;28;20022;-77
2023/03/30 04:02:44;;;;;;;15.80;3.05;;;;;;;12.16;100.00;98311.63;4991690;28;20045;-77
2023/03/30 04:05:09;;;;;;;15.75;2.45;;;;;;;11.98;100.00;98315.16;4989940;28;20484;-77
2023/03/30 04:07:35;;;;;;;11.68;2.22;;;;;;;11.90;100.00;98308.16;4996079;28;20024;-77
2023/03/30 04:10:02;;;;;;;16.98;2.40;;;;;;;11.76;100.00;98309.28;4998784;28;20050;-76
2023/03/30 04:12:28;;;;;;;14.48;2.47;;;;;;;11.54;100.00;98322.41;5012222;28;20018;-79
2023/03/30 04:14:54;;;;;;;11.70;2.47;;;;;;;11.71;100.00;98333.50;5000883;28;20022;-78
2023/03/30 04:17:22;;;;;;;15.02;2.53;;;;;;;11.63;100.00;98326.47;4992236;28;20017;-78
2023/03/30 04:19:52;;;;;;;14.48;2.83;;;;;;;11.56;100.00;98317.59;5011600;28;20025;-76
2023/03/30 04:22:19;;;;;;;15.30;2.17;;;;;;;11.52;100.00;98287.41;5009754;28;20104;-85
2023/03/30 04:24:45;;;;;;;10.90;2.40;;;;;;;11.55;100.00;98273.44;5000438;28;20033;-80
2023/03/30 04:27:15;;;;;;;19.83;2.55;;;;;;;11.43;100.00;98258.13;4986467;28;20019;-81
2023/03/30 04:29:43;;;;;;;19.92;2.67;;;;;;;11.45;100.00;98286.66;4995237;28;20021;-80
2023/03/30 04:32:11;;;;;;;18.35;2.58;;;;;;;11.51;100.00;98331.81;4996471;28;20026;-82
2023/03/30 04:34:43;;;;;;;14.98;2.53;;;;;;;10.93;100.00;98261.66;5019063;28;20041;-77
2023/03/30 04:37:16;;;;;;;17.35;2.55;;;;;;;11.40;100.00;98325.22;5033224;28;20038;-76
2023/03/30 04:39:42;;;;;;;13.02;3.20;;;;;;;11.32;100.00;98303.00;5004684;28;20467;-80
2023/03/30 04:42:12;;;;;;;17.38;2.92;;;;;;;11.34;100.00;98287.34;4995899;28;20125;-77
2023/03/30 04:44:39;;;;;;;18.45;2.95;;;;;;;11.33;100.00;98272.16;4995620;28;20022;-76
2023/03/30 04:47:05;;;;;;;9.90;2.60;;;;;;;11.16;100.00;98272.72;4997830;28;20057;-76
2023/03/30 04:49:30;;;;;;;17.85;2.78;;;;;;;11.11;100.00;98274.44;4997865;28;20037;-75
2023/03/30 04:51:56;;;;;;;15.50;3.67;;;;;;;11.13;100.00;98286.69;5012610;28;20030;-77
2023/03/30 04:54:21;;;;;;;8.65;2.72;;;;;;;10.93;100.00;98258.94;5004312;28;20022;-76
2023/03/30 04:56:47;;;;;;;14.55;3.03;;;;;;;11.17;100.00;98295.19;5014570;28;20409;-75
2023/03/30 04:59:12;;;;;;;8.00;2.70;;;;;;;11.18;100.00;98299.56;4997332;28;20049;-76
2023/03/30 05:01:37;;;;;;;14.05;3.53;;;;;;;11.15;100.00;98278.34;4993660;28;20073;-74
2023/03/30 05:04:03;;;;;;;13.32;3.33;;;;;;;11.20;100.00;98270.38;4993492;28;20161;-74
2023/03/30 05:06:28;;;;;;;19.05;3.05;;;;;;;11.22;100.00;98278.31;5009460;28;20026;-74
2023/03/30 05:08:54;;;;;;;15.73;3.22;;;;;;;11.17;100.00;98279.78;4997529;28;20033;-77
2023/03/30 05:11:19;;;;;;;14.18;2.78;;;;;;;11.21;100.00;98285.56;4994036;28;20033;-77
2023/03/30 05:13:44;;;;;;;13.50;3.03;;;;;;;11.04;100.00;98255.50;4999550;28;20022;-80
2023/03/30 05:16:10;;;;;;;13.93;3.40;;;;;;;11.18;100.00;98278.72;5015661;28;20033;-79
2023/03/30 05:18:37;;;;;;;23.52;3.80;;;;;;;11.04;100.00;98260.94;5019184;28;20068;-79
2023/03/30 05:21:03;;;;;;;13.32;3.70;;;;;;;11.04;100.00;98266.34;5023541;28;20030;-82
2023/03/30 05:23:28;;;;;;;17.65;3.88;;;;;;;10.98;100.00;98261.81;4996522;28;20071;-75
2023/03/30 05:25:54;;;;;;;23.75;4.22;;;;;;;11.03;100.00;98251.16;4993037;28;20034;-77
2023/03/30 05:28:20;;;;;;;40.00;8.55;;;;;;;11.03;100.00;98236.78;4990500;28;20391;-79
2023/03/30 05:30:45;;;;;;;36.03;8.30;;;;;;;10.97;100.00;98230.38;4979885;28;20030;-76
2023/03/30 05:33:11;;;;;;;18.02;4.90;;;;;;;11.03;100.00;98231.34;4989858;28;20026;-74
2023/03/30 05:35:38;;;;;;;13.38;4.10;;;;;;;11.21;100.00;98249.53;5000166;28;20570;-83
2023/03/30 05:38:06;;;;;;;18.83;3.70;;;;;;;11.23;100.00;98247.47;4996085;28;20052;-78
2023/03/30 05:40:31;;;;;;;15.23;3.55;;;;;;;11.11;100.00;98240.06;4993550;28;20030;-75
2023/03/30 05:42:56;;;;;;;13.23;3.53;;;;;;;11.08;100.00;98229.69;5009986;28;20411;-76
2023/03/30 05:45:22;;;;;;;18.17;2.83;;;;;;;11.16;100.00;98229.41;4988144;28;20068;-73
2023/03/30 05:47:47;;;;;;;14.65;3.67;;;;;;;11.31;100.00;98203.84;5009482;28;20026;-73
2023/03/30 05:50:13;;;;;;;16.90;3.22;;;;;;;11.46;100.00;98208.91;4994631;28;20406;-80
2023/03/30 05:52:38;;;;;;;11.57;2.30;;;;;;;11.44;100.00;98192.06;4992589;28;20029;-76
2023/03/30 05:55:04;;;;;;;11.93;2.80;;;;;;;11.53;100.00;98199.69;4993652;28;20037;-76
2023/03/30 05:57:29;;;;;;;15.25;2.83;;;;;;;11.43;100.00;98183.09;5009912;28;20108;-75
2023/03/30 05:59:54;;;;;;;21.50;2.55;;;;;;;11.45;100.00;98169.31;4996536;28;20032;-73
2023/03/30 06:02:20;;;;;;;15.02;2.80;;;;;;;11.58;100.00;98202.53;5006989;28;20030;-73
2023/03/30 06:04:45;;;;;;;15.70;2.75;;;;;;;11.58;100.00;98234.19;4992832;28;20026;-77
2023/03/30 06:07:10;;;;;;;17.15;2.50;;;;;;;11.61;100.00;98279.84;4995190;28;20060;-73
2023/03/30 06:09:36;;;;;;;18.05;3.03;;;;;;;11.49;100.00;98298.69;4999095;28;20075;-78
2023/03/30 06:12:02;;;;;;;13.52;3.05;;;;;;;11.53;100.00;98342.44;5001504;28;20041;-77
2023/03/30 06:14:27;;;;;;;14.93;2.72;;;;;;;11.54;100.00;98335.97;4999761;28;20403;-78
2023/03/30 06:16:53;;;;;;;12.30;3.15;;;;;;;11.48;100.00;98348.50;5018442;28;20036;-79
2023/03/30 06:19:18;;;;;;;10.90;2.42;;;;;;;11.50;100.00;98370.78;5000914;28;20021;-75
2023/03/30 06:21:43;;;;;;;12.85;2.75;;;;;;;11.50;100.00;98375.34;4998152;28;20037;-78
2023/03/30 06:24:08;;;;;;;14.38;2.75;;;;;;;11.53;100.00;98381.19;5002290;28;20088;-79
2023/03/30 06:26:34;;;;;;;21.23;3.17;;;;;;;11.50;100.00;98384.34;5000525;28;20038;-78
2023/03/30 06:29:00;;;;;;;24.20;3.90;;;;;;;11.45;100.00;98388.72;5016843;28;20041;-77
2023/03/30 06:31:25;;;;;;;17.40;3.78;;;;;;;11.47;100.00;98394.75;4999002;28;20442;-86
2023/03/30 06:33:50;;;;;;;21.33;3.33;;;;;;;11.31;100.00;98366.34;5005876;28;20112;-73
2023/03/30 06:36:16;;;;;;;10.18;3.58;;;;;;;11.47;100.00;98389.34;5007453;28;20041;-73
2023/03/30 06:38:44;;;;;;;24.08;5.22;;;;;;;11.40;100.00;98367.75;4983150;28;20029;-73
2023/03/30 06:41:11;;;;;;;25.52;4.07;;;;;;;11.57;100.00;98395.13;5011932;28;20434;-73
2023/03/30 06:43:37;;;;;;;15.38;3.78;;;;;;;11.58;100.00;98391.34;5014470;28;20168;-73
2023/03/30 06:46:03;;;;;;;20.58;3.92;;;;;;;11.61;100.00;98418.03;5009612;28;20526;-73
2023/03/30 06:48:29;;;;;;;12.05;3.03;;;;;;;11.52;100.00;98403.06;5011070;28;20030;-73
2023/03/30 06:50:54;;;;;;;14.45;3.40;;;;;;;11.53;100.00;98393.91;5016306;28;20042;-84
2023/03/30 06:53:21;;;;;;;21.45;4.30;;;;;;;11.52;100.00;98405.78;4998214;28;20029;-83
2023/03/30 06:55:52;;;;;;;30.23;4.18;;;;;;;11.59;100.00;98426.34;5000033;28;20026;-78
2023/03/30 06:58:17;;;;;;;23.30;4.15;;;;;;;11.55;100.00;98419.72;5004383;28;20160;-79
2023/03/30 07:00:42;;;;;;;17.15;4.28;;;;;;;11.56;100.00;98442.22;5000251;28;20042;-75
2023/03/30 07:03:08;;;;;;;19.40;3.65;;;;;;;11.44;100.00;98433.13;4995905;28;20033;-74
2023/03/30 07:05:34;;;;;;;21.02;4.18;;;;;;;11.39;100.00;98439.19;5013649;28;20026;-76
2023/03/30 07:07:59;;;;;;;14.95;3.50;;;;;;;11.39;100.00;98455.44;5000167;28;20036;-77
2023/03/30 07:10:24;;;;;;;23.08;4.82;;;;;;;11.51;100.00;98478.09;5027136;28;20033;-77
2023/03/30 07:12:50;;;;;;;17.30;3.45;;;;;;;11.50;100.00;98472.88;5017006;28;20021;-71
2023/03/30 07:15:15;;;;;;;16.58;3.10;;;;;;;11.69;100.00;98480.06;5010378;28;20037;-73
2023/03/30 07:17:41;;;;;;;9.23;2.30;;;;;;;11.69;100.00;98473.84;5012727;28;20502;-71
2023/03/30 07:20:08;;;;;;;15.43;2.88;;;;;;;11.84;100.00;98474.31;4998972;28;20022;-80
2023/03/30 07:22:34;;;;;;;20.58;4.25;;;;;;;11.81;100.00;98469.34;5011416;28;20056;-81
2023/03/30 07:25:01;;;;;;;15.40;2.90;;;;;;;11.70;100.00;98467.34;5000590;28;20037;-78
2023/03/30 07:27:26;;;;;;;17.23;3.50;;;;;;;11.66;100.00;98466.13;4996713;28;20034;-72
2023/03/30 07:29:52;;;;;;;18.45;2.88;;;;;;;11.55;100.00;98463.09;5010726;28;20025;-72
2023/03/30 07:32:18;;;;;;;12.02;2.90;;;;;;;11.65;100.00;98489.69;5001916;28;20037;-81
2023/03/30 07:34:44;;;;;;;18.85;3.17;;;;;;;11.58;100.00;98495.16;5033011;28;20141;-77
2023/03/30 07:37:10;;;;;;;12.45;3.50;;;;;;;11.58;100.00;98497.88;5011272;28;20383;-81
2023/03/30 07:39:36;;;;;;;20.98;3.28;;;;;;;11.59;100.00;98513.06;5009444;28;20025;-78
2023/03/30 07:42:01;;;;;;;14.65;3.17;;;;;;;11.38;100.00;98472.75;5001692;28;20017;-79
2023/03/30 07:44:29;;;;;;;18.25;4.00;;;;;;;11.51;100.00;98472.69;5002522;28;20396;-77
2023/03/30 07:46:56;;;;;;;16.10;3.67;;;;;;;11.55;100.00;98490.19;4999755;28;20501;-75
2023/03/30 07:49:22;;;;;;;15.15;3.30;;;;;;;11.39;100.00;98475.22;5006913;28;20032;-80
2023/03/30 07:51:47;;;;;;;12.43;3.00;;;;;;;11.50;100.00;98489.13;5003502;28;20050;-77
2023/03/30 07:54:13;;;;;;;14.27;3.28;;;;;;;11.32;100.00;98460.91;4998155;28;20061;-77
2023/03/30 07:56:38;;;;;;;15.00;3.85;;;;;;;11.50;100.00;98484.56;5004525;28;20061;-75
2023/03/30 07:59:06;;;;;;;14.35;3.10;;;;;;;11.75;100.00;98491.91;5013157;28;22262;-75
2023/03/30 08:01:32;;;;;;;12.88;4.13;;;;;;;11.74;100.00;98476.72;5013555;28;20044;-74
2023/03/30 08:03:59;;;;;;;21.00;4.80;;;;;;;11.63;100.00;98473.66;5014017;28;20455;-76
2023/03/30 08:06:25;;;;;;;16.95;3.60;;;;;;;11.66;100.00;98485.09;4994715;28;20029;-76
2023/03/30 08:08:51;;;;;;;19.23;3.70;;;;;;;11.72;100.00;98519.47;5008545;28;20025;-75
2023/03/30 08:11:16;;;;;;;11.57;4.10;;;;;;;11.72;100.00;98536.56;5017293;28;20509;-78
2023/03/30 08:13:43;;;;;;;14.30;4.13;;;;;;;11.71;100.00;98544.88;5019353;28;20740;-73
2023/03/30 08:16:09;;;;;;;17.70;4.15;;;;;;;11.63;100.00;98533.28;5015545;28;20033;-78
2023/03/30 08:18:35;;;;;;;15.40;3.55;;;;;;;11.62;100.00;98568.69;4997634;28;20018;-78
2023/03/30 08:21:01;;;;;;;14.90;3.70;;;;;;;11.48;100.00;98553.56;4996190;28;20026;-77
2023/03/30 08:23:26;;;;;;;19.13;4.18;;;;;;;11.66;100.00;98569.94;4994005;28;20124;-76
2023/03/30 08:25:55;;;;;;;17.75;3.95;;;;;;;11.75;100.00;98567.81;4996260;28;20026;-79
2023/03/30 08:28:21;;;;;;;17.42;3.58;;;;;;;11.71;100.00;98542.16;4998783;28;20483;-78
2023/03/30 08:30:47;;;;;;;11.38;3.38;;;;;;;11.93;100.00;98550.84;4996816;28;20034;-75
2023/03/30 08:33:14;;;;;;;19.67;3.25;;;;;;;11.99;100.00;98534.53;5021542;28;20026;-78
2023/03/30 08:35:40;;;;;;;13.57;3.85;;;;;;;11.84;100.00;98520.41;5006490;28;20026;-78
2023/03/30 08:38:05;;;;;;;15.23;3.47;;;;;;;11.88;100.00;98539.81;4988800;28;20496;-76
2023/03/30 08:40:31;;;;;;;12.18;3.28;;;;;;;11.74;100.00;98539.06;4995368;28;20025;-73
2023/03/30 08:43:21;;;;;;;19.27;4.00;;;;;;;11.63;100.00;98513.44;4992738;28;20026;-72
2023/03/30 08:45:47;;;;;;;16.25;3.28;;;;;;;11.55;100.00;98490.19;5004031;28;20029;-70
2023/03/30 08:48:22;;;;;;;16.52;3.92;;;;;;;11.59;100.00;98485.13;5011811;28;20029;-77
2023/03/30 08:51:04;;;;;;;23.25;4.43;;;;;;;11.56;100.00;98459.31;5005851;28;20046;-79
2023/03/30 08:53:32;;;;;;;18.30;4.88;;;;;;;11.59;100.00;98450.75;5016318;28;20034;-74
2023/03/30 08:56:03;;;;;;;17.92;4.07;;;;;;;11.61;100.00;98467.63;4993559;28;20079;-75
2023/03/30 08:58:28;;;;;;;13.73;3.80;;;;;;;11.52;100.00;98473.50;4995735;28;20083;-76
2023/03/30 09:01:15;;;;;;;20.58;3.50;;;;;;;11.32;100.00;98470.94;4991733;28;20030;-78
2023/03/30 09:04:00;;;;;;;11.63;3.78;;;;;;;11.38;100.00;98472.75;5004283;28;20071;-80
2023/03/30 09:06:34;;;;;;;13.57;3.60;;;;;;;11.32;100.00;98468.22;5013556;28;20659;-84
2023/03/30 09:09:00;;;;;;;14.85;3.60;;;;;;;11.26;100.00;98458.22;5006015;28;20034;-79
2023/03/30 09:11:35;;;;;;;13.10;3.33;;;;;;;11.22;100.00;98455.13;4996004;28;20040;-78
2023/03/30 09:14:04;;;;;;;12.32;3.17;;;;;;;11.28;100.00;98466.97;4997557;28;20036;-78
2023/03/30 09:16:51;;;;;;;13.10;3.33;;;;;;;11.29;100.00;98464.06;4993607;28;20022;-72
2023/03/30 09:19:24;;;;;;;10.38;3.22;;;;;;;11.32;100.00;98468.22;4984949;28;20037;-72
2023/03/30 09:21:52;;;;;;;9.38;2.85;;;;;;;11.35;100.00;98451.53;5007943;28;20100;-73
2023/03/30 09:24:24;;;;;;;10.50;2.90;;;;;;;11.49;100.00;98476.66;5011872;28;20049;-74
2023/03/30 09:27:11;;;;;;;10.98;2.78;;;;;;;11.54;100.00;98474.94;5000066;28;20051;-73
2023/03/30 09:29:45;;;;;;;7.25;3.00;;;;;;;11.59;100.00;98475.13;4994533;28;20041;-74
2023/03/30 09:32:26;;;;;;;9.55;2.78;;;;;;;11.64;100.00;98474.47;4992058;28;20029;-73
2023/03/30 09:35:03;;;;;;;10.45;3.00;;;;;;;11.73;100.00;98484.00;5010146;28;20415;-73
2023/03/30 09:37:29;;;;;;;10.65;3.83;;;;;;;11.81;100.00;98488.31;4993432;28;20388;-73
2023/03/30 09:39:57;;;;;;;9.15;2.80;;;;;;;11.99;100.00;98483.00;5011239;28;20025;-73
2023/03/30 09:42:58;;;;;;;14.50;2.73;;;;;;;12.22;100.00;98489.72;4982635;28;20029;-72
2023/03/30 09:45:33;;;;;;;9.68;2.42;;;;;;;12.31;100.00;98472.09;5008854;28;20056;-70
2023/03/30 09:48:07;;;;;;;7.68;2.45;;;;;;;12.22;100.00;98484.31;5012843;28;20026;-71
2023/03/30 09:50:40;;;;;;;9.73;2.30;;;;;;;12.05;100.00;98455.03;5015087;28;20106;-71
2023/03/30 09:53:17;;;;;;;6.75;2.33;;;;;;;12.11;100.00;98501.28;5011592;28;20038;-70
2023/03/30 09:55:54;;;;;;;11.98;2.50;;;;;;;12.12;100.00;98522.75;5004104;28;20145;-71
2023/03/30 09:58:27;;;;;;;12.68;2.42;;;;;;;11.98;100.00;98521.19;5011565;28;20025;-70
2023/03/30 10:01:15;;;;;;;11.50;3.30;;;;;;;11.81;100.00;98513.53;5003565;28;20026;-71
2023/03/30 10:03:43;;;;;;;6.05;2.25;;;;;;;11.76;100.00;98523.38;5010397;28;20498;-71
2023/03/30 10:06:17;;;;;;;15.65;3.50;;;;;;;11.67;100.00;98527.41;5004171;28;20495;-75
2023/03/30 10:08:49;;;;;;;16.15;3.70;;;;;;;11.62;100.00;98522.63;5015692;28;20113;-71
2023/03/30 10:11:32;;;;;;;14.18;3.28;;;;;;;11.51;100.00;98521.44;5018339;28;20030;-71
2023/03/30 10:13:58;;;;;;;11.75;3.95;;;;;;;11.50;100.00;98549.59;5012907;28;20443;-71
2023/03/30 10:16:31;;;;;;;12.50;3.25;;;;;;;11.43;100.00;98534.41;5017882;28;20063;-72
2023/03/30 10:19:03;;;;;;;10.55;3.63;;;;;;;11.61;100.00;98512.84;5013453;28;20065;-72
2023/03/30 10:21:40;;;;;;;11.80;4.20;;;;;;;11.99;100.00;98502.00;5013259;28;20053;-71
2023/03/30 10:24:17;;;;;;;13.82;3.80;;;;;;;12.31;100.00;98482.13;5013791;28;20037;-70
2023/03/30 10:26:46;;;;;;;10.63;4.90;;;;;;;12.23;100.00;98464.25;4997524;28;20026;-70
2023/03/30 10:29:13;;;;;;;9.23;3.50;;;;;;;12.07;100.00;98461.03;5013379;28;20030;-70
2023/03/30 10:31:42;;;;;;;13.48;3.40;;;;;;;11.93;100.00;98466.81;5013413;28;20041;-70
2023/03/30 10:34:41;;;;;;;9.82;3.05;;;;;;;11.92;100.00;98457.84;5012440;28;20041;-70
2023/03/30 10:37:15;;;;;;;10.20;3.42;;;;;;;11.90;100.00;98459.13;5000774;28;20380;-70
2023/03/30 10:39:43;;;;;;;12.00;4.00;;;;;;;11.82;100.00;98452.88;5004409;28;20028;-70
2023/03/30 10:42:14;;;;;;;10.00;3.22;;;;;;;11.90;100.00;98464.53;5008244;28;20467;-70
2023/03/30 10:44:49;;;;;;;7.88;3.95;;;;;;;12.03;100.00;98467.16;5005546;28;20403;-70
2023/03/30 10:47:48;;;;;;;8.02;3.20;;;;;;;12.22;100.00;98463.44;5011366;28;20026;-75
2023/03/30 10:50:19;;;;;;;10.38;3.30;;;;;;;12.38;100.00;98451.19;4993455;28;20034;-69
2023/03/30 10:52:50;;;;;;;9.80;3.40;;;;;;;12.69;100.00;98452.13;5012446;28;20479;-71
2023/03/30 10:55:32;;;;;;;6.18;2.22;;;;;;;12.72;100.00;98429.94;5009114;28;20026;-70
2023/03/30 10:58:11;;;;;;;8.45;2.10;;;;;;;12.93;100.00;98415.91;5007222;28;20403;-74
2023/03/30 11:00:51;;;;;;;11.90;2.47;;;;;;;13.22;100.00;98431.63;5005234;28;20108;-73
2023/03/30 11:03:23;;;;;;;6.72;2.10;;;;;;;13.42;100.00;98404.22;5009776;28;20535;-73
2023/03/30 11:05:53;;;;;;;5.57;1.90;;;;;;;13.75;100.00;98403.69;4996892;28;20030;-73
2023/03/30 11:08:26;;;;;;;5.28;2.22;;;;;;;13.84;100.00;98393.34;5012075;28;20029;-75
2023/03/30 11:10:54;;;;;;;4.90;1.80;;;;;;;15.65;100.00;98398.50;4995093;28;20442;-75
2023/03/30 11:13:37;;;;;;;9.63;2.03;;;;;;;16.60;100.00;98394.00;5012830;28;20014;-72
2023/03/30 11:16:09;;;;;;;6.25;1.92;;;;;;;17.31;100.00;98377.66;4996565;28;20030;-75
2023/03/30 11:18:51;;;;;;;5.35;1.60;;;;;;;19.42;100.00;98377.94;5011466;28;20029;-72
2023/03/30 11:21:45;;;;;;;5.93;1.60;;;;;;;19.17;100.00;98388.81;5003993;28;22421;-74
2023/03/30 11:24:16;;;;;;;4.53;1.52;;;;;;;18.43;100.00;98396.13;5002909;28;20423;-72
2023/03/30 11:26:48;;;;;;;5.57;1.50;;;;;;;17.88;100.00;98380.94;5005896;28;20033;-71
2023/03/30 11:29:38;;;;;;;7.35;2.38;;;;;;;17.36;100.00;98392.47;5005315;28;20065;-71
2023/03/30 11:32:14;;;;;;;7.85;1.98;;;;;;;16.91;100.00;98391.69;5008768;28;20053;-72
2023/03/30 11:34:52;;;;;;;4.90;1.67;;;;;;;16.69;100.00;98407.19;5012179;28;20034;-70